<?xml version="1.0" encoding="UTF-8" standalone="no" ?>
<gpx xmlns="http://www.topografix.com/GPX/1/1" xmlns:xsi="http://www.w3.org/2001/XMLSchema-instance" xsi:schemaLocation="http://www.topografix.com/GPX/1/1 http://www.topografix.com/GPX/1/1/gpx.xsd" version="1.1" creator="VisuGPX - https://www.visugpx.com">
  <metadata>
    <name>Tarn Nivoliers Castelbouc 12,5</name>
  </metadata>
  <trk>
    <name><![CDATA[12937903-Tarn Nivoliers Castelbouc 12,5]]></name>
    <trkseg>
      <trkpt lat="44.26719" lon="3.45881">
        <ele>946</ele>
        <time>2021-05-16T20:02:45Z</time>
      </trkpt>
      <trkpt lat="44.26823" lon="3.4588">
        <ele>943</ele>
        <time>2021-05-16T20:05:04Z</time>
      </trkpt>
      <trkpt lat="44.2684" lon="3.45883">
        <ele>943</ele>
        <time>2021-05-16T20:05:27Z</time>
      </trkpt>
      <trkpt lat="44.26872" lon="3.45897">
        <ele>944</ele>
        <time>2021-05-16T20:06:11Z</time>
      </trkpt>
      <trkpt lat="44.27002" lon="3.45884">
        <ele>942</ele>
        <time>2021-05-16T20:09:05Z</time>
      </trkpt>
      <trkpt lat="44.27049" lon="3.45889">
        <ele>940</ele>
        <time>2021-05-16T20:10:08Z</time>
      </trkpt>
      <trkpt lat="44.27151" lon="3.4592">
        <ele>938</ele>
        <time>2021-05-16T20:12:28Z</time>
      </trkpt>
      <trkpt lat="44.27215" lon="3.45948">
        <ele>933</ele>
        <time>2021-05-16T20:13:57Z</time>
      </trkpt>
      <trkpt lat="44.27242" lon="3.45955">
        <ele>931</ele>
        <time>2021-05-16T20:14:34Z</time>
      </trkpt>
      <trkpt lat="44.27268" lon="3.45957">
        <ele>930</ele>
        <time>2021-05-16T20:15:08Z</time>
      </trkpt>
      <trkpt lat="44.27313" lon="3.45956">
        <ele>929</ele>
        <time>2021-05-16T20:16:08Z</time>
      </trkpt>
      <trkpt lat="44.27339" lon="3.45959">
        <ele>928</ele>
        <time>2021-05-16T20:16:43Z</time>
      </trkpt>
      <trkpt lat="44.27407" lon="3.45979">
        <ele>928</ele>
        <time>2021-05-16T20:18:16Z</time>
      </trkpt>
      <trkpt lat="44.2744" lon="3.45992">
        <ele>928</ele>
        <time>2021-05-16T20:19:02Z</time>
      </trkpt>
      <trkpt lat="44.27476" lon="3.46011">
        <ele>927</ele>
        <time>2021-05-16T20:19:53Z</time>
      </trkpt>
      <trkpt lat="44.27844" lon="3.46225">
        <ele>923</ele>
        <time>2021-05-16T20:28:45Z</time>
      </trkpt>
      <trkpt lat="44.28008" lon="3.46317">
        <ele>926</ele>
        <time>2021-05-16T20:32:41Z</time>
      </trkpt>
      <trkpt lat="44.28081" lon="3.46347">
        <ele>925</ele>
        <time>2021-05-16T20:34:22Z</time>
      </trkpt>
      <trkpt lat="44.28101" lon="3.46359">
        <ele>925</ele>
        <time>2021-05-16T20:34:52Z</time>
      </trkpt>
      <trkpt lat="44.28214" lon="3.46454">
        <ele>926</ele>
        <time>2021-05-16T20:37:48Z</time>
      </trkpt>
      <trkpt lat="44.28423" lon="3.46601">
        <ele>929</ele>
        <time>2021-05-16T20:43:00Z</time>
      </trkpt>
      <trkpt lat="44.28479" lon="3.46637">
        <ele>929</ele>
        <time>2021-05-16T20:44:22Z</time>
      </trkpt>
      <trkpt lat="44.28546" lon="3.46671">
        <ele>930</ele>
        <time>2021-05-16T20:45:57Z</time>
      </trkpt>
      <trkpt lat="44.28623" lon="3.46707">
        <ele>931</ele>
        <time>2021-05-16T20:47:46Z</time>
      </trkpt>
      <trkpt lat="44.28706" lon="3.46752">
        <ele>932</ele>
        <time>2021-05-16T20:49:44Z</time>
      </trkpt>
      <trkpt lat="44.28693" lon="3.46876">
        <ele>933</ele>
        <time>2021-05-16T20:51:44Z</time>
      </trkpt>
      <trkpt lat="44.28662" lon="3.47135">
        <ele>937</ele>
        <time>2021-05-16T20:55:55Z</time>
      </trkpt>
      <trkpt lat="44.28669" lon="3.47142">
        <ele>937</ele>
        <time>2021-05-16T20:56:06Z</time>
      </trkpt>
      <trkpt lat="44.28677" lon="3.47142">
        <ele>937</ele>
        <time>2021-05-16T20:56:17Z</time>
      </trkpt>
      <trkpt lat="44.28695" lon="3.47133">
        <ele>937</ele>
        <time>2021-05-16T20:56:43Z</time>
      </trkpt>
      <trkpt lat="44.28763" lon="3.47119">
        <ele>937</ele>
        <time>2021-05-16T20:58:14Z</time>
      </trkpt>
      <trkpt lat="44.28806" lon="3.47116">
        <ele>937</ele>
        <time>2021-05-16T20:59:12Z</time>
      </trkpt>
      <trkpt lat="44.28825" lon="3.47118">
        <ele>937</ele>
        <time>2021-05-16T20:59:37Z</time>
      </trkpt>
      <trkpt lat="44.28897" lon="3.47136">
        <ele>938</ele>
        <time>2021-05-16T21:01:15Z</time>
      </trkpt>
      <trkpt lat="44.28991" lon="3.47143">
        <ele>939</ele>
        <time>2021-05-16T21:03:20Z</time>
      </trkpt>
      <trkpt lat="44.29011" lon="3.4714">
        <ele>940</ele>
        <time>2021-05-16T21:03:47Z</time>
      </trkpt>
      <trkpt lat="44.29048" lon="3.47129">
        <ele>941</ele>
        <time>2021-05-16T21:04:38Z</time>
      </trkpt>
      <trkpt lat="44.29061" lon="3.47129">
        <ele>941</ele>
        <time>2021-05-16T21:04:55Z</time>
      </trkpt>
      <trkpt lat="44.29085" lon="3.47131">
        <ele>942</ele>
        <time>2021-05-16T21:05:27Z</time>
      </trkpt>
      <trkpt lat="44.29114" lon="3.4714">
        <ele>943</ele>
        <time>2021-05-16T21:06:07Z</time>
      </trkpt>
      <trkpt lat="44.29156" lon="3.47162">
        <ele>944</ele>
        <time>2021-05-16T21:07:07Z</time>
      </trkpt>
      <trkpt lat="44.29234" lon="3.47188">
        <ele>947</ele>
        <time>2021-05-16T21:08:54Z</time>
      </trkpt>
      <trkpt lat="44.29267" lon="3.47205">
        <ele>949</ele>
        <time>2021-05-16T21:09:41Z</time>
      </trkpt>
      <trkpt lat="44.29279" lon="3.47209">
        <ele>950</ele>
        <time>2021-05-16T21:09:57Z</time>
      </trkpt>
      <trkpt lat="44.2932" lon="3.47215">
        <ele>952</ele>
        <time>2021-05-16T21:10:52Z</time>
      </trkpt>
      <trkpt lat="44.29339" lon="3.47222">
        <ele>953</ele>
        <time>2021-05-16T21:11:18Z</time>
      </trkpt>
      <trkpt lat="44.29412" lon="3.47253">
        <ele>957</ele>
        <time>2021-05-16T21:13:00Z</time>
      </trkpt>
      <trkpt lat="44.29469" lon="3.47284">
        <ele>959</ele>
        <time>2021-05-16T21:14:22Z</time>
      </trkpt>
      <trkpt lat="44.2948" lon="3.47288">
        <ele>959</ele>
        <time>2021-05-16T21:14:37Z</time>
      </trkpt>
      <trkpt lat="44.29498" lon="3.47289">
        <ele>959</ele>
        <time>2021-05-16T21:15:01Z</time>
      </trkpt>
      <trkpt lat="44.29519" lon="3.47284">
        <ele>958</ele>
        <time>2021-05-16T21:15:29Z</time>
      </trkpt>
      <trkpt lat="44.29564" lon="3.47253">
        <ele>957</ele>
        <time>2021-05-16T21:16:36Z</time>
      </trkpt>
      <trkpt lat="44.29601" lon="3.47245">
        <ele>956</ele>
        <time>2021-05-16T21:17:26Z</time>
      </trkpt>
      <trkpt lat="44.29618" lon="3.47243">
        <ele>955</ele>
        <time>2021-05-16T21:17:49Z</time>
      </trkpt>
      <trkpt lat="44.29658" lon="3.47247">
        <ele>953</ele>
        <time>2021-05-16T21:18:43Z</time>
      </trkpt>
      <trkpt lat="44.29739" lon="3.47263">
        <ele>949</ele>
        <time>2021-05-16T21:20:32Z</time>
      </trkpt>
      <trkpt lat="44.29769" lon="3.47266">
        <ele>948</ele>
        <time>2021-05-16T21:21:12Z</time>
      </trkpt>
      <trkpt lat="44.2981" lon="3.47281">
        <ele>945</ele>
        <time>2021-05-16T21:22:08Z</time>
      </trkpt>
      <trkpt lat="44.29946" lon="3.47315">
        <ele>940</ele>
        <time>2021-05-16T21:25:13Z</time>
      </trkpt>
      <trkpt lat="44.29964" lon="3.47324">
        <ele>939</ele>
        <time>2021-05-16T21:25:38Z</time>
      </trkpt>
      <trkpt lat="44.29983" lon="3.47339">
        <ele>938</ele>
        <time>2021-05-16T21:26:07Z</time>
      </trkpt>
      <trkpt lat="44.30012" lon="3.47367">
        <ele>938</ele>
        <time>2021-05-16T21:26:55Z</time>
      </trkpt>
      <trkpt lat="44.30028" lon="3.47379">
        <ele>938</ele>
        <time>2021-05-16T21:27:19Z</time>
      </trkpt>
      <trkpt lat="44.30128" lon="3.4743">
        <ele>936</ele>
        <time>2021-05-16T21:29:41Z</time>
      </trkpt>
      <trkpt lat="44.30147" lon="3.47437">
        <ele>936</ele>
        <time>2021-05-16T21:30:07Z</time>
      </trkpt>
      <trkpt lat="44.30189" lon="3.4745">
        <ele>936</ele>
        <time>2021-05-16T21:31:04Z</time>
      </trkpt>
      <trkpt lat="44.30214" lon="3.47463">
        <ele>936</ele>
        <time>2021-05-16T21:31:40Z</time>
      </trkpt>
      <trkpt lat="44.30288" lon="3.47528">
        <ele>935</ele>
        <time>2021-05-16T21:33:37Z</time>
      </trkpt>
      <trkpt lat="44.30314" lon="3.47545">
        <ele>935</ele>
        <time>2021-05-16T21:34:15Z</time>
      </trkpt>
      <trkpt lat="44.30324" lon="3.47548">
        <ele>934</ele>
        <time>2021-05-16T21:34:29Z</time>
      </trkpt>
      <trkpt lat="44.30334" lon="3.47548">
        <ele>934</ele>
        <time>2021-05-16T21:34:42Z</time>
      </trkpt>
      <trkpt lat="44.30396" lon="3.47536">
        <ele>933</ele>
        <time>2021-05-16T21:36:05Z</time>
      </trkpt>
      <trkpt lat="44.3044" lon="3.47532">
        <ele>933</ele>
        <time>2021-05-16T21:37:04Z</time>
      </trkpt>
      <trkpt lat="44.30458" lon="3.47535">
        <ele>933</ele>
        <time>2021-05-16T21:37:29Z</time>
      </trkpt>
      <trkpt lat="44.30531" lon="3.47555">
        <ele>933</ele>
        <time>2021-05-16T21:39:08Z</time>
      </trkpt>
      <trkpt lat="44.30589" lon="3.4758">
        <ele>933</ele>
        <time>2021-05-16T21:40:29Z</time>
      </trkpt>
      <trkpt lat="44.30606" lon="3.4759">
        <ele>932</ele>
        <time>2021-05-16T21:40:53Z</time>
      </trkpt>
      <trkpt lat="44.30634" lon="3.47614">
        <ele>931</ele>
        <time>2021-05-16T21:41:37Z</time>
      </trkpt>
      <trkpt lat="44.30643" lon="3.47619">
        <ele>931</ele>
        <time>2021-05-16T21:41:50Z</time>
      </trkpt>
      <trkpt lat="44.30653" lon="3.47622">
        <ele>931</ele>
        <time>2021-05-16T21:42:04Z</time>
      </trkpt>
      <trkpt lat="44.30694" lon="3.47617">
        <ele>929</ele>
        <time>2021-05-16T21:42:59Z</time>
      </trkpt>
      <trkpt lat="44.30746" lon="3.47628">
        <ele>927</ele>
        <time>2021-05-16T21:44:09Z</time>
      </trkpt>
      <trkpt lat="44.30759" lon="3.47633">
        <ele>927</ele>
        <time>2021-05-16T21:44:27Z</time>
      </trkpt>
      <trkpt lat="44.30818" lon="3.47667">
        <ele>925</ele>
        <time>2021-05-16T21:45:52Z</time>
      </trkpt>
      <trkpt lat="44.30863" lon="3.47703">
        <ele>924</ele>
        <time>2021-05-16T21:47:01Z</time>
      </trkpt>
      <trkpt lat="44.30911" lon="3.47737">
        <ele>922</ele>
        <time>2021-05-16T21:48:13Z</time>
      </trkpt>
      <trkpt lat="44.30923" lon="3.47748">
        <ele>922</ele>
        <time>2021-05-16T21:48:32Z</time>
      </trkpt>
      <trkpt lat="44.30957" lon="3.47793">
        <ele>922</ele>
        <time>2021-05-16T21:49:35Z</time>
      </trkpt>
      <trkpt lat="44.3097" lon="3.47807">
        <ele>921</ele>
        <time>2021-05-16T21:49:57Z</time>
      </trkpt>
      <trkpt lat="44.31002" lon="3.47834">
        <ele>921</ele>
        <time>2021-05-16T21:50:47Z</time>
      </trkpt>
      <trkpt lat="44.31017" lon="3.47849">
        <ele>922</ele>
        <time>2021-05-16T21:51:11Z</time>
      </trkpt>
      <trkpt lat="44.31025" lon="3.47855">
        <ele>922</ele>
        <time>2021-05-16T21:51:23Z</time>
      </trkpt>
      <trkpt lat="44.31033" lon="3.47855">
        <ele>922</ele>
        <time>2021-05-16T21:51:34Z</time>
      </trkpt>
      <trkpt lat="44.31042" lon="3.47852">
        <ele>922</ele>
        <time>2021-05-16T21:51:46Z</time>
      </trkpt>
      <trkpt lat="44.31083" lon="3.47818">
        <ele>919</ele>
        <time>2021-05-16T21:52:50Z</time>
      </trkpt>
      <trkpt lat="44.31114" lon="3.47802">
        <ele>919</ele>
        <time>2021-05-16T21:53:34Z</time>
      </trkpt>
      <trkpt lat="44.31147" lon="3.47792">
        <ele>918</ele>
        <time>2021-05-16T21:54:19Z</time>
      </trkpt>
      <trkpt lat="44.31157" lon="3.47787">
        <ele>917</ele>
        <time>2021-05-16T21:54:33Z</time>
      </trkpt>
      <trkpt lat="44.31179" lon="3.4777">
        <ele>916</ele>
        <time>2021-05-16T21:55:07Z</time>
      </trkpt>
      <trkpt lat="44.312" lon="3.47759">
        <ele>915</ele>
        <time>2021-05-16T21:55:37Z</time>
      </trkpt>
      <trkpt lat="44.31219" lon="3.47754">
        <ele>914</ele>
        <time>2021-05-16T21:56:02Z</time>
      </trkpt>
      <trkpt lat="44.3126" lon="3.47757">
        <ele>913</ele>
        <time>2021-05-16T21:56:57Z</time>
      </trkpt>
      <trkpt lat="44.31321" lon="3.47774">
        <ele>913</ele>
        <time>2021-05-16T21:58:20Z</time>
      </trkpt>
      <trkpt lat="44.31347" lon="3.47774">
        <ele>913</ele>
        <time>2021-05-16T21:58:55Z</time>
      </trkpt>
      <trkpt lat="44.31358" lon="3.47771">
        <ele>913</ele>
        <time>2021-05-16T21:59:10Z</time>
      </trkpt>
      <trkpt lat="44.31409" lon="3.47748">
        <ele>913</ele>
        <time>2021-05-16T22:00:21Z</time>
      </trkpt>
      <trkpt lat="44.31444" lon="3.4773">
        <ele>914</ele>
        <time>2021-05-16T22:01:11Z</time>
      </trkpt>
      <trkpt lat="44.31512" lon="3.47685">
        <ele>912</ele>
        <time>2021-05-16T22:02:52Z</time>
      </trkpt>
      <trkpt lat="44.31536" lon="3.47676">
        <ele>911</ele>
        <time>2021-05-16T22:03:25Z</time>
      </trkpt>
      <trkpt lat="44.31598" lon="3.47665">
        <ele>910</ele>
        <time>2021-05-16T22:04:48Z</time>
      </trkpt>
      <trkpt lat="44.31643" lon="3.47672">
        <ele>910</ele>
        <time>2021-05-16T22:05:49Z</time>
      </trkpt>
      <trkpt lat="44.31658" lon="3.47673">
        <ele>910</ele>
        <time>2021-05-16T22:06:09Z</time>
      </trkpt>
      <trkpt lat="44.31671" lon="3.47671">
        <ele>909</ele>
        <time>2021-05-16T22:06:26Z</time>
      </trkpt>
      <trkpt lat="44.31692" lon="3.47662">
        <ele>909</ele>
        <time>2021-05-16T22:06:55Z</time>
      </trkpt>
      <trkpt lat="44.31704" lon="3.47659">
        <ele>909</ele>
        <time>2021-05-16T22:07:12Z</time>
      </trkpt>
      <trkpt lat="44.31787" lon="3.47651">
        <ele>909</ele>
        <time>2021-05-16T22:09:03Z</time>
      </trkpt>
      <trkpt lat="44.31822" lon="3.47655">
        <ele>910</ele>
        <time>2021-05-16T22:09:50Z</time>
      </trkpt>
      <trkpt lat="44.31891" lon="3.47678">
        <ele>910</ele>
        <time>2021-05-16T22:11:24Z</time>
      </trkpt>
      <trkpt lat="44.31928" lon="3.47698">
        <ele>911</ele>
        <time>2021-05-16T22:12:17Z</time>
      </trkpt>
      <trkpt lat="44.31968" lon="3.47705">
        <ele>912</ele>
        <time>2021-05-16T22:13:11Z</time>
      </trkpt>
      <trkpt lat="44.32028" lon="3.47745">
        <ele>914</ele>
        <time>2021-05-16T22:14:40Z</time>
      </trkpt>
      <trkpt lat="44.32069" lon="3.47779">
        <ele>914</ele>
        <time>2021-05-16T22:15:43Z</time>
      </trkpt>
      <trkpt lat="44.32079" lon="3.47784">
        <ele>913</ele>
        <time>2021-05-16T22:15:57Z</time>
      </trkpt>
      <trkpt lat="44.32089" lon="3.47784">
        <ele>914</ele>
        <time>2021-05-16T22:16:11Z</time>
      </trkpt>
      <trkpt lat="44.321" lon="3.47779">
        <ele>914</ele>
        <time>2021-05-16T22:16:26Z</time>
      </trkpt>
      <trkpt lat="44.32105" lon="3.47764">
        <ele>915</ele>
        <time>2021-05-16T22:16:42Z</time>
      </trkpt>
      <trkpt lat="44.32111" lon="3.47717">
        <ele>916</ele>
        <time>2021-05-16T22:17:28Z</time>
      </trkpt>
      <trkpt lat="44.32114" lon="3.47661">
        <ele>915</ele>
        <time>2021-05-16T22:18:21Z</time>
      </trkpt>
      <trkpt lat="44.32113" lon="3.47613">
        <ele>913</ele>
        <time>2021-05-16T22:19:07Z</time>
      </trkpt>
      <trkpt lat="44.32116" lon="3.47589">
        <ele>912</ele>
        <time>2021-05-16T22:19:30Z</time>
      </trkpt>
      <trkpt lat="44.32128" lon="3.47541">
        <ele>911</ele>
        <time>2021-05-16T22:20:19Z</time>
      </trkpt>
      <trkpt lat="44.32148" lon="3.47479">
        <ele>909</ele>
        <time>2021-05-16T22:21:24Z</time>
      </trkpt>
      <trkpt lat="44.32182" lon="3.47401">
        <ele>907</ele>
        <time>2021-05-16T22:22:51Z</time>
      </trkpt>
      <trkpt lat="44.32209" lon="3.47324">
        <ele>905</ele>
        <time>2021-05-16T22:24:13Z</time>
      </trkpt>
      <trkpt lat="44.32214" lon="3.47306">
        <ele>904</ele>
        <time>2021-05-16T22:24:31Z</time>
      </trkpt>
      <trkpt lat="44.32221" lon="3.47258">
        <ele>902</ele>
        <time>2021-05-16T22:25:18Z</time>
      </trkpt>
      <trkpt lat="44.32223" lon="3.47235">
        <ele>902</ele>
        <time>2021-05-16T22:25:40Z</time>
      </trkpt>
      <trkpt lat="44.32222" lon="3.47194">
        <ele>900</ele>
        <time>2021-05-16T22:26:19Z</time>
      </trkpt>
      <trkpt lat="44.32224" lon="3.47181">
        <ele>900</ele>
        <time>2021-05-16T22:26:32Z</time>
      </trkpt>
      <trkpt lat="44.32237" lon="3.4714">
        <ele>899</ele>
        <time>2021-05-16T22:27:15Z</time>
      </trkpt>
      <trkpt lat="44.32238" lon="3.47129">
        <ele>899</ele>
        <time>2021-05-16T22:27:25Z</time>
      </trkpt>
      <trkpt lat="44.32235" lon="3.47104">
        <ele>899</ele>
        <time>2021-05-16T22:27:50Z</time>
      </trkpt>
      <trkpt lat="44.32236" lon="3.47096">
        <ele>899</ele>
        <time>2021-05-16T22:27:57Z</time>
      </trkpt>
      <trkpt lat="44.3224" lon="3.47086">
        <ele>899</ele>
        <time>2021-05-16T22:28:08Z</time>
      </trkpt>
      <trkpt lat="44.32321" lon="3.47007">
        <ele>898</ele>
        <time>2021-05-16T22:30:20Z</time>
      </trkpt>
      <trkpt lat="44.3234" lon="3.46996">
        <ele>898</ele>
        <time>2021-05-16T22:30:48Z</time>
      </trkpt>
      <trkpt lat="44.32368" lon="3.46975">
        <ele>899</ele>
        <time>2021-05-16T22:31:30Z</time>
      </trkpt>
      <trkpt lat="44.32391" lon="3.46964">
        <ele>899</ele>
        <time>2021-05-16T22:32:02Z</time>
      </trkpt>
      <trkpt lat="44.32404" lon="3.46943">
        <ele>900</ele>
        <time>2021-05-16T22:32:29Z</time>
      </trkpt>
      <trkpt lat="44.32427" lon="3.46925">
        <ele>900</ele>
        <time>2021-05-16T22:33:04Z</time>
      </trkpt>
      <trkpt lat="44.32438" lon="3.46911">
        <ele>899</ele>
        <time>2021-05-16T22:33:24Z</time>
      </trkpt>
      <trkpt lat="44.32489" lon="3.4687">
        <ele>895</ele>
        <time>2021-05-16T22:34:42Z</time>
      </trkpt>
      <trkpt lat="44.32501" lon="3.46856">
        <ele>894</ele>
        <time>2021-05-16T22:35:03Z</time>
      </trkpt>
      <trkpt lat="44.3254" lon="3.46832">
        <ele>890</ele>
        <time>2021-05-16T22:36:00Z</time>
      </trkpt>
      <trkpt lat="44.32581" lon="3.46802">
        <ele>885</ele>
        <time>2021-05-16T22:37:02Z</time>
      </trkpt>
      <trkpt lat="44.32589" lon="3.46791">
        <ele>884</ele>
        <time>2021-05-16T22:37:17Z</time>
      </trkpt>
      <trkpt lat="44.32625" lon="3.46762">
        <ele>882</ele>
        <time>2021-05-16T22:38:12Z</time>
      </trkpt>
      <trkpt lat="44.32666" lon="3.46706">
        <ele>881</ele>
        <time>2021-05-16T22:39:29Z</time>
      </trkpt>
      <trkpt lat="44.32692" lon="3.46679">
        <ele>880</ele>
        <time>2021-05-16T22:40:12Z</time>
      </trkpt>
      <trkpt lat="44.32761" lon="3.46555">
        <ele>882</ele>
        <time>2021-05-16T22:42:42Z</time>
      </trkpt>
      <trkpt lat="44.32784" lon="3.46509">
        <ele>883</ele>
        <time>2021-05-16T22:43:36Z</time>
      </trkpt>
      <trkpt lat="44.32791" lon="3.46489">
        <ele>885</ele>
        <time>2021-05-16T22:43:57Z</time>
      </trkpt>
      <trkpt lat="44.32824" lon="3.46424">
        <ele>892</ele>
        <time>2021-05-16T22:45:13Z</time>
      </trkpt>
      <trkpt lat="44.32835" lon="3.46393">
        <ele>895</ele>
        <time>2021-05-16T22:45:46Z</time>
      </trkpt>
      <trkpt lat="44.32869" lon="3.46331">
        <ele>901</ele>
        <time>2021-05-16T22:47:01Z</time>
      </trkpt>
      <trkpt lat="44.3288" lon="3.46318">
        <ele>902</ele>
        <time>2021-05-16T22:47:20Z</time>
      </trkpt>
      <trkpt lat="44.32916" lon="3.46291">
        <ele>905</ele>
        <time>2021-05-16T22:48:14Z</time>
      </trkpt>
      <trkpt lat="44.32931" lon="3.46278">
        <ele>907</ele>
        <time>2021-05-16T22:48:38Z</time>
      </trkpt>
      <trkpt lat="44.32943" lon="3.4626">
        <ele>909</ele>
        <time>2021-05-16T22:49:01Z</time>
      </trkpt>
      <trkpt lat="44.32956" lon="3.46223">
        <ele>912</ele>
        <time>2021-05-16T22:49:41Z</time>
      </trkpt>
      <trkpt lat="44.32962" lon="3.46197">
        <ele>913</ele>
        <time>2021-05-16T22:50:07Z</time>
      </trkpt>
      <trkpt lat="44.32975" lon="3.46172">
        <ele>916</ele>
        <time>2021-05-16T22:50:36Z</time>
      </trkpt>
      <trkpt lat="44.32983" lon="3.46166">
        <ele>917</ele>
        <time>2021-05-16T22:50:48Z</time>
      </trkpt>
      <trkpt lat="44.32998" lon="3.46165">
        <ele>920</ele>
        <time>2021-05-16T22:51:08Z</time>
      </trkpt>
      <trkpt lat="44.33012" lon="3.46159">
        <ele>922</ele>
        <time>2021-05-16T22:51:28Z</time>
      </trkpt>
      <trkpt lat="44.33034" lon="3.46144">
        <ele>925</ele>
        <time>2021-05-16T22:52:01Z</time>
      </trkpt>
      <trkpt lat="44.33073" lon="3.46065">
        <ele>934</ele>
        <time>2021-05-16T22:53:32Z</time>
      </trkpt>
      <trkpt lat="44.33088" lon="3.46039">
        <ele>938</ele>
        <time>2021-05-16T22:54:04Z</time>
      </trkpt>
      <trkpt lat="44.33108" lon="3.45993">
        <ele>943</ele>
        <time>2021-05-16T22:54:56Z</time>
      </trkpt>
      <trkpt lat="44.33115" lon="3.4597">
        <ele>945</ele>
        <time>2021-05-16T22:55:19Z</time>
      </trkpt>
      <trkpt lat="44.33126" lon="3.45943">
        <ele>949</ele>
        <time>2021-05-16T22:55:49Z</time>
      </trkpt>
      <trkpt lat="44.33152" lon="3.45911">
        <ele>953</ele>
        <time>2021-05-16T22:56:35Z</time>
      </trkpt>
      <trkpt lat="44.33166" lon="3.4589">
        <ele>956</ele>
        <time>2021-05-16T22:57:03Z</time>
      </trkpt>
      <trkpt lat="44.33185" lon="3.4587">
        <ele>959</ele>
        <time>2021-05-16T22:57:34Z</time>
      </trkpt>
      <trkpt lat="44.33199" lon="3.45867">
        <ele>959</ele>
        <time>2021-05-16T22:57:53Z</time>
      </trkpt>
      <trkpt lat="44.33222" lon="3.45867">
        <ele>959</ele>
        <time>2021-05-16T22:58:24Z</time>
      </trkpt>
      <trkpt lat="44.33248" lon="3.45862">
        <ele>960</ele>
        <time>2021-05-16T22:58:59Z</time>
      </trkpt>
      <trkpt lat="44.33262" lon="3.45857">
        <ele>960</ele>
        <time>2021-05-16T22:59:18Z</time>
      </trkpt>
      <trkpt lat="44.33282" lon="3.45843">
        <ele>961</ele>
        <time>2021-05-16T22:59:48Z</time>
      </trkpt>
      <trkpt lat="44.33343" lon="3.45783">
        <ele>964</ele>
        <time>2021-05-16T23:01:28Z</time>
      </trkpt>
      <trkpt lat="44.33375" lon="3.45754">
        <ele>962</ele>
        <time>2021-05-16T23:02:19Z</time>
      </trkpt>
      <trkpt lat="44.33404" lon="3.45698">
        <ele>964</ele>
        <time>2021-05-16T23:03:25Z</time>
      </trkpt>
      <trkpt lat="44.33413" lon="3.4565">
        <ele>967</ele>
        <time>2021-05-16T23:04:12Z</time>
      </trkpt>
      <trkpt lat="44.33419" lon="3.456">
        <ele>968</ele>
        <time>2021-05-16T23:05:00Z</time>
      </trkpt>
      <trkpt lat="44.33427" lon="3.45619">
        <ele>966</ele>
        <time>2021-05-16T23:05:21Z</time>
      </trkpt>
      <trkpt lat="44.33428" lon="3.45656">
        <ele>964</ele>
        <time>2021-05-16T23:05:57Z</time>
      </trkpt>
      <trkpt lat="44.33417" lon="3.45707">
        <ele>962</ele>
        <time>2021-05-16T23:06:48Z</time>
      </trkpt>
      <trkpt lat="44.33407" lon="3.45748">
        <ele>959</ele>
        <time>2021-05-16T23:07:29Z</time>
      </trkpt>
      <trkpt lat="44.33396" lon="3.45778">
        <ele>956</ele>
        <time>2021-05-16T23:08:01Z</time>
      </trkpt>
      <trkpt lat="44.33381" lon="3.45812">
        <ele>954</ele>
        <time>2021-05-16T23:08:39Z</time>
      </trkpt>
      <trkpt lat="44.33353" lon="3.45852">
        <ele>953</ele>
        <time>2021-05-16T23:09:33Z</time>
      </trkpt>
      <trkpt lat="44.33328" lon="3.45878">
        <ele>953</ele>
        <time>2021-05-16T23:10:14Z</time>
      </trkpt>
      <trkpt lat="44.33313" lon="3.45909">
        <ele>949</ele>
        <time>2021-05-16T23:10:50Z</time>
      </trkpt>
      <trkpt lat="44.33298" lon="3.45936">
        <ele>945</ele>
        <time>2021-05-16T23:11:23Z</time>
      </trkpt>
      <trkpt lat="44.3328" lon="3.4598">
        <ele>937</ele>
        <time>2021-05-16T23:12:11Z</time>
      </trkpt>
      <trkpt lat="44.33278" lon="3.45993">
        <ele>934</ele>
        <time>2021-05-16T23:12:24Z</time>
      </trkpt>
      <trkpt lat="44.33284" lon="3.46005">
        <ele>932</ele>
        <time>2021-05-16T23:12:38Z</time>
      </trkpt>
      <trkpt lat="44.33294" lon="3.46006">
        <ele>931</ele>
        <time>2021-05-16T23:12:51Z</time>
      </trkpt>
      <trkpt lat="44.3334" lon="3.45999">
        <ele>930</ele>
        <time>2021-05-16T23:13:53Z</time>
      </trkpt>
      <trkpt lat="44.33389" lon="3.45979">
        <ele>923</ele>
        <time>2021-05-16T23:15:01Z</time>
      </trkpt>
      <trkpt lat="44.33421" lon="3.45958">
        <ele>919</ele>
        <time>2021-05-16T23:15:48Z</time>
      </trkpt>
      <trkpt lat="44.33429" lon="3.45947">
        <ele>917</ele>
        <time>2021-05-16T23:16:03Z</time>
      </trkpt>
      <trkpt lat="44.33437" lon="3.45922">
        <ele>917</ele>
        <time>2021-05-16T23:16:29Z</time>
      </trkpt>
      <trkpt lat="44.3344" lon="3.45916">
        <ele>916</ele>
        <time>2021-05-16T23:16:36Z</time>
      </trkpt>
      <trkpt lat="44.33446" lon="3.45915">
        <ele>914</ele>
        <time>2021-05-16T23:16:44Z</time>
      </trkpt>
      <trkpt lat="44.33449" lon="3.45918">
        <ele>912</ele>
        <time>2021-05-16T23:16:49Z</time>
      </trkpt>
      <trkpt lat="44.33446" lon="3.45941">
        <ele>910</ele>
        <time>2021-05-16T23:17:11Z</time>
      </trkpt>
      <trkpt lat="44.33439" lon="3.45966">
        <ele>909</ele>
        <time>2021-05-16T23:17:37Z</time>
      </trkpt>
      <trkpt lat="44.33423" lon="3.46007">
        <ele>910</ele>
        <time>2021-05-16T23:18:22Z</time>
      </trkpt>
      <trkpt lat="44.33396" lon="3.46087">
        <ele>904</ele>
        <time>2021-05-16T23:19:46Z</time>
      </trkpt>
      <trkpt lat="44.33364" lon="3.4617">
        <ele>891</ele>
        <time>2021-05-16T23:21:16Z</time>
      </trkpt>
      <trkpt lat="44.33354" lon="3.46188">
        <ele>890</ele>
        <time>2021-05-16T23:21:38Z</time>
      </trkpt>
      <trkpt lat="44.33345" lon="3.46198">
        <ele>890</ele>
        <time>2021-05-16T23:21:53Z</time>
      </trkpt>
      <trkpt lat="44.33317" lon="3.46214">
        <ele>893</ele>
        <time>2021-05-16T23:22:34Z</time>
      </trkpt>
      <trkpt lat="44.33303" lon="3.46218">
        <ele>895</ele>
        <time>2021-05-16T23:22:53Z</time>
      </trkpt>
      <trkpt lat="44.33298" lon="3.46225">
        <ele>895</ele>
        <time>2021-05-16T23:23:02Z</time>
      </trkpt>
      <trkpt lat="44.33296" lon="3.46234">
        <ele>894</ele>
        <time>2021-05-16T23:23:11Z</time>
      </trkpt>
      <trkpt lat="44.33299" lon="3.46247">
        <ele>891</ele>
        <time>2021-05-16T23:23:24Z</time>
      </trkpt>
      <trkpt lat="44.33309" lon="3.46261">
        <ele>888</ele>
        <time>2021-05-16T23:23:43Z</time>
      </trkpt>
      <trkpt lat="44.33343" lon="3.4629">
        <ele>878</ele>
        <time>2021-05-16T23:24:36Z</time>
      </trkpt>
      <trkpt lat="44.33369" lon="3.46323">
        <ele>869</ele>
        <time>2021-05-16T23:25:23Z</time>
      </trkpt>
      <trkpt lat="44.33376" lon="3.46327">
        <ele>867</ele>
        <time>2021-05-16T23:25:33Z</time>
      </trkpt>
      <trkpt lat="44.33393" lon="3.4633">
        <ele>860</ele>
        <time>2021-05-16T23:25:56Z</time>
      </trkpt>
      <trkpt lat="44.33398" lon="3.46335">
        <ele>858</ele>
        <time>2021-05-16T23:26:04Z</time>
      </trkpt>
      <trkpt lat="44.33401" lon="3.46343">
        <ele>856</ele>
        <time>2021-05-16T23:26:13Z</time>
      </trkpt>
      <trkpt lat="44.33398" lon="3.4638">
        <ele>856</ele>
        <time>2021-05-16T23:26:48Z</time>
      </trkpt>
      <trkpt lat="44.33395" lon="3.46399">
        <ele>856</ele>
        <time>2021-05-16T23:27:07Z</time>
      </trkpt>
      <trkpt lat="44.33391" lon="3.46412">
        <ele>858</ele>
        <time>2021-05-16T23:27:20Z</time>
      </trkpt>
      <trkpt lat="44.33375" lon="3.46441">
        <ele>861</ele>
        <time>2021-05-16T23:27:55Z</time>
      </trkpt>
      <trkpt lat="44.33384" lon="3.46448">
        <ele>854</ele>
        <time>2021-05-16T23:28:09Z</time>
      </trkpt>
      <trkpt lat="44.33391" lon="3.46447">
        <ele>851</ele>
        <time>2021-05-16T23:28:19Z</time>
      </trkpt>
      <trkpt lat="44.33403" lon="3.46432">
        <ele>848</ele>
        <time>2021-05-16T23:28:40Z</time>
      </trkpt>
      <trkpt lat="44.33426" lon="3.46355">
        <ele>843</ele>
        <time>2021-05-16T23:30:00Z</time>
      </trkpt>
      <trkpt lat="44.33425" lon="3.46308">
        <ele>846</ele>
        <time>2021-05-16T23:30:45Z</time>
      </trkpt>
      <trkpt lat="44.33415" lon="3.46294">
        <ele>852</ele>
        <time>2021-05-16T23:31:03Z</time>
      </trkpt>
      <trkpt lat="44.33401" lon="3.46285">
        <ele>858</ele>
        <time>2021-05-16T23:31:24Z</time>
      </trkpt>
      <trkpt lat="44.33395" lon="3.46278">
        <ele>860</ele>
        <time>2021-05-16T23:31:34Z</time>
      </trkpt>
      <trkpt lat="44.33396" lon="3.4626">
        <ele>860</ele>
        <time>2021-05-16T23:31:52Z</time>
      </trkpt>
      <trkpt lat="44.3341" lon="3.46234">
        <ele>860</ele>
        <time>2021-05-16T23:32:23Z</time>
      </trkpt>
      <trkpt lat="44.33459" lon="3.46172">
        <ele>850</ele>
        <time>2021-05-16T23:33:51Z</time>
      </trkpt>
      <trkpt lat="44.3348" lon="3.46161">
        <ele>841</ele>
        <time>2021-05-16T23:34:21Z</time>
      </trkpt>
      <trkpt lat="44.33497" lon="3.46135">
        <ele>842</ele>
        <time>2021-05-16T23:34:54Z</time>
      </trkpt>
      <trkpt lat="44.33547" lon="3.4607">
        <ele>838</ele>
        <time>2021-05-16T23:36:26Z</time>
      </trkpt>
      <trkpt lat="44.33567" lon="3.46032">
        <ele>833</ele>
        <time>2021-05-16T23:37:11Z</time>
      </trkpt>
      <trkpt lat="44.33581" lon="3.45995">
        <ele>828</ele>
        <time>2021-05-16T23:37:51Z</time>
      </trkpt>
      <trkpt lat="44.33586" lon="3.45951">
        <ele>826</ele>
        <time>2021-05-16T23:38:33Z</time>
      </trkpt>
      <trkpt lat="44.33583" lon="3.45923">
        <ele>828</ele>
        <time>2021-05-16T23:39:00Z</time>
      </trkpt>
      <trkpt lat="44.33584" lon="3.45894">
        <ele>830</ele>
        <time>2021-05-16T23:39:28Z</time>
      </trkpt>
      <trkpt lat="44.33591" lon="3.45882">
        <ele>828</ele>
        <time>2021-05-16T23:39:43Z</time>
      </trkpt>
      <trkpt lat="44.33599" lon="3.45852">
        <ele>829</ele>
        <time>2021-05-16T23:40:13Z</time>
      </trkpt>
      <trkpt lat="44.33611" lon="3.4583">
        <ele>828</ele>
        <time>2021-05-16T23:40:40Z</time>
      </trkpt>
      <trkpt lat="44.33652" lon="3.45809">
        <ele>822</ele>
        <time>2021-05-16T23:41:38Z</time>
      </trkpt>
      <trkpt lat="44.3368" lon="3.45806">
        <ele>817</ele>
        <time>2021-05-16T23:42:15Z</time>
      </trkpt>
      <trkpt lat="44.33701" lon="3.45819">
        <ele>809</ele>
        <time>2021-05-16T23:42:46Z</time>
      </trkpt>
      <trkpt lat="44.33717" lon="3.45835">
        <ele>801</ele>
        <time>2021-05-16T23:43:12Z</time>
      </trkpt>
      <trkpt lat="44.33734" lon="3.45846">
        <ele>794</ele>
        <time>2021-05-16T23:43:37Z</time>
      </trkpt>
      <trkpt lat="44.33749" lon="3.45846">
        <ele>793</ele>
        <time>2021-05-16T23:43:57Z</time>
      </trkpt>
      <trkpt lat="44.33775" lon="3.45836">
        <ele>790</ele>
        <time>2021-05-16T23:44:33Z</time>
      </trkpt>
      <trkpt lat="44.33796" lon="3.45823">
        <ele>788</ele>
        <time>2021-05-16T23:45:04Z</time>
      </trkpt>
      <trkpt lat="44.33816" lon="3.458">
        <ele>788</ele>
        <time>2021-05-16T23:45:38Z</time>
      </trkpt>
      <trkpt lat="44.33828" lon="3.45776">
        <ele>788</ele>
        <time>2021-05-16T23:46:06Z</time>
      </trkpt>
      <trkpt lat="44.33826" lon="3.45742">
        <ele>797</ele>
        <time>2021-05-16T23:46:39Z</time>
      </trkpt>
      <trkpt lat="44.33829" lon="3.45716">
        <ele>803</ele>
        <time>2021-05-16T23:47:04Z</time>
      </trkpt>
      <trkpt lat="44.33847" lon="3.45701">
        <ele>798</ele>
        <time>2021-05-16T23:47:32Z</time>
      </trkpt>
      <trkpt lat="44.33866" lon="3.45699">
        <ele>790</ele>
        <time>2021-05-16T23:47:57Z</time>
      </trkpt>
      <trkpt lat="44.33882" lon="3.45681">
        <ele>789</ele>
        <time>2021-05-16T23:48:25Z</time>
      </trkpt>
      <trkpt lat="44.3389" lon="3.45652">
        <ele>796</ele>
        <time>2021-05-16T23:48:55Z</time>
      </trkpt>
      <trkpt lat="44.33929" lon="3.45659">
        <ele>781</ele>
        <time>2021-05-16T23:49:47Z</time>
      </trkpt>
      <trkpt lat="44.33946" lon="3.45652">
        <ele>782</ele>
        <time>2021-05-16T23:50:11Z</time>
      </trkpt>
      <trkpt lat="44.33968" lon="3.45635">
        <ele>784</ele>
        <time>2021-05-16T23:50:44Z</time>
      </trkpt>
      <trkpt lat="44.33988" lon="3.45638">
        <ele>780</ele>
        <time>2021-05-16T23:51:11Z</time>
      </trkpt>
      <trkpt lat="44.34" lon="3.45667">
        <ele>769</ele>
        <time>2021-05-16T23:51:43Z</time>
      </trkpt>
      <trkpt lat="44.34018" lon="3.45693">
        <ele>762</ele>
        <time>2021-05-16T23:52:18Z</time>
      </trkpt>
      <trkpt lat="44.34044" lon="3.45721">
        <ele>758</ele>
        <time>2021-05-16T23:53:01Z</time>
      </trkpt>
      <trkpt lat="44.34079" lon="3.45764">
        <ele>752</ele>
        <time>2021-05-16T23:54:04Z</time>
      </trkpt>
      <trkpt lat="44.34105" lon="3.45806">
        <ele>746</ele>
        <time>2021-05-16T23:54:57Z</time>
      </trkpt>
      <trkpt lat="44.34116" lon="3.45849">
        <ele>733</ele>
        <time>2021-05-16T23:55:40Z</time>
      </trkpt>
      <trkpt lat="44.34131" lon="3.45868">
        <ele>730</ele>
        <time>2021-05-16T23:56:07Z</time>
      </trkpt>
      <trkpt lat="44.34166" lon="3.45892">
        <ele>731</ele>
        <time>2021-05-16T23:56:59Z</time>
      </trkpt>
      <trkpt lat="44.34205" lon="3.45907">
        <ele>729</ele>
        <time>2021-05-16T23:57:53Z</time>
      </trkpt>
      <trkpt lat="44.34237" lon="3.4591">
        <ele>732</ele>
        <time>2021-05-16T23:58:36Z</time>
      </trkpt>
      <trkpt lat="44.34278" lon="3.4591">
        <ele>733</ele>
        <time>2021-05-16T23:59:31Z</time>
      </trkpt>
      <trkpt lat="44.34292" lon="3.45914">
        <ele>731</ele>
        <time>2021-05-16T23:59:50Z</time>
      </trkpt>
      <trkpt lat="44.34331" lon="3.45917">
        <ele>729</ele>
        <time>2021-05-17T00:00:42Z</time>
      </trkpt>
      <trkpt lat="44.34371" lon="3.45907">
        <ele>724</ele>
        <time>2021-05-17T00:01:36Z</time>
      </trkpt>
      <trkpt lat="44.34421" lon="3.45883">
        <ele>721</ele>
        <time>2021-05-17T00:02:47Z</time>
      </trkpt>
      <trkpt lat="44.34518" lon="3.45819">
        <ele>695</ele>
        <time>2021-05-17T00:05:10Z</time>
      </trkpt>
      <trkpt lat="44.34525" lon="3.45784">
        <ele>694</ele>
        <time>2021-05-17T00:05:44Z</time>
      </trkpt>
      <trkpt lat="44.34526" lon="3.45739">
        <ele>694</ele>
        <time>2021-05-17T00:06:27Z</time>
      </trkpt>
      <trkpt lat="44.34514" lon="3.45666">
        <ele>694</ele>
        <time>2021-05-17T00:07:39Z</time>
      </trkpt>
      <trkpt lat="44.34516" lon="3.45567">
        <ele>689</ele>
        <time>2021-05-17T00:09:13Z</time>
      </trkpt>
      <trkpt lat="44.34555" lon="3.45397">
        <ele>681</ele>
        <time>2021-05-17T00:12:04Z</time>
      </trkpt>
      <trkpt lat="44.34569" lon="3.45376">
        <ele>680</ele>
        <time>2021-05-17T00:12:31Z</time>
      </trkpt>
      <trkpt lat="44.34574" lon="3.4539">
        <ele>674</ele>
        <time>2021-05-17T00:12:46Z</time>
      </trkpt>
      <trkpt lat="44.34574" lon="3.45448">
        <ele>661</ele>
        <time>2021-05-17T00:13:41Z</time>
      </trkpt>
      <trkpt lat="44.34569" lon="3.45498">
        <ele>655</ele>
        <time>2021-05-17T00:14:30Z</time>
      </trkpt>
      <trkpt lat="44.34555" lon="3.45599">
        <ele>659</ele>
        <time>2021-05-17T00:16:08Z</time>
      </trkpt>
      <trkpt lat="44.34564" lon="3.45654">
        <ele>656</ele>
        <time>2021-05-17T00:17:02Z</time>
      </trkpt>
      <trkpt lat="44.34587" lon="3.457">
        <ele>645</ele>
        <time>2021-05-17T00:17:55Z</time>
      </trkpt>
      <trkpt lat="44.34614" lon="3.45745">
        <ele>634</ele>
        <time>2021-05-17T00:18:51Z</time>
      </trkpt>
      <trkpt lat="44.34626" lon="3.45803">
        <ele>628</ele>
        <time>2021-05-17T00:19:49Z</time>
      </trkpt>
      <trkpt lat="44.34627" lon="3.4584">
        <ele>627</ele>
        <time>2021-05-17T00:20:24Z</time>
      </trkpt>
      <trkpt lat="44.3462" lon="3.45891">
        <ele>617</ele>
        <time>2021-05-17T00:21:14Z</time>
      </trkpt>
      <trkpt lat="44.34603" lon="3.45923">
        <ele>617</ele>
        <time>2021-05-17T00:21:52Z</time>
      </trkpt>
      <trkpt lat="44.3457" lon="3.4598">
        <ele>609</ele>
        <time>2021-05-17T00:23:02Z</time>
      </trkpt>
      <trkpt lat="44.34542" lon="3.46015">
        <ele>606</ele>
        <time>2021-05-17T00:23:52Z</time>
      </trkpt>
      <trkpt lat="44.34522" lon="3.46029">
        <ele>608</ele>
        <time>2021-05-17T00:24:22Z</time>
      </trkpt>
      <trkpt lat="44.34504" lon="3.46059">
        <ele>602</ele>
        <time>2021-05-17T00:24:59Z</time>
      </trkpt>
      <trkpt lat="44.34446" lon="3.46127">
        <ele>595</ele>
        <time>2021-05-17T00:26:40Z</time>
      </trkpt>
      <trkpt lat="44.34404" lon="3.46172">
        <ele>587</ele>
        <time>2021-05-17T00:27:51Z</time>
      </trkpt>
      <trkpt lat="44.34362" lon="3.46212">
        <ele>573</ele>
        <time>2021-05-17T00:28:59Z</time>
      </trkpt>
      <trkpt lat="44.3435" lon="3.46215">
        <ele>574</ele>
        <time>2021-05-17T00:29:15Z</time>
      </trkpt>
      <trkpt lat="44.34318" lon="3.46208">
        <ele>582</ele>
        <time>2021-05-17T00:29:58Z</time>
      </trkpt>
      <trkpt lat="44.34284" lon="3.46232">
        <ele>571</ele>
        <time>2021-05-17T00:30:49Z</time>
      </trkpt>
      <trkpt lat="44.34258" lon="3.46245">
        <ele>566</ele>
        <time>2021-05-17T00:31:26Z</time>
      </trkpt>
      <trkpt lat="44.3423" lon="3.4625">
        <ele>560</ele>
        <time>2021-05-17T00:32:03Z</time>
      </trkpt>
      <trkpt lat="44.34228" lon="3.46255">
        <ele>557</ele>
        <time>2021-05-17T00:32:09Z</time>
      </trkpt>
      <trkpt lat="44.34233" lon="3.46259">
        <ele>556</ele>
        <time>2021-05-17T00:32:17Z</time>
      </trkpt>
      <trkpt lat="44.34245" lon="3.46259">
        <ele>559</ele>
        <time>2021-05-17T00:32:33Z</time>
      </trkpt>
      <trkpt lat="44.34282" lon="3.46254">
        <ele>560</ele>
        <time>2021-05-17T00:33:22Z</time>
      </trkpt>
      <trkpt lat="44.3432" lon="3.4624">
        <ele>565</ele>
        <time>2021-05-17T00:34:15Z</time>
      </trkpt>
      <trkpt lat="44.34323" lon="3.46244">
        <ele>563</ele>
        <time>2021-05-17T00:34:20Z</time>
      </trkpt>
      <trkpt lat="44.34278" lon="3.46284">
        <ele>546</ele>
        <time>2021-05-17T00:35:31Z</time>
      </trkpt>
      <trkpt lat="44.34257" lon="3.463">
        <ele>540</ele>
        <time>2021-05-17T00:36:03Z</time>
      </trkpt>
      <trkpt lat="44.34239" lon="3.46311">
        <ele>533</ele>
        <time>2021-05-17T00:36:29Z</time>
      </trkpt>
      <trkpt lat="44.34228" lon="3.46315">
        <ele>529</ele>
        <time>2021-05-17T00:36:45Z</time>
      </trkpt>
      <trkpt lat="44.34203" lon="3.46315">
        <ele>525</ele>
        <time>2021-05-17T00:37:18Z</time>
      </trkpt>
      <trkpt lat="44.342" lon="3.46318">
        <ele>523</ele>
        <time>2021-05-17T00:37:23Z</time>
      </trkpt>
      <trkpt lat="44.34206" lon="3.46327">
        <ele>520</ele>
        <time>2021-05-17T00:37:35Z</time>
      </trkpt>
      <trkpt lat="44.34218" lon="3.46335">
        <ele>518</ele>
        <time>2021-05-17T00:37:52Z</time>
      </trkpt>
      <trkpt lat="44.34221" lon="3.4634">
        <ele>516</ele>
        <time>2021-05-17T00:37:59Z</time>
      </trkpt>
      <trkpt lat="44.34212" lon="3.46345">
        <ele>513</ele>
        <time>2021-05-17T00:38:12Z</time>
      </trkpt>
      <trkpt lat="44.34201" lon="3.46347">
        <ele>511</ele>
        <time>2021-05-17T00:38:26Z</time>
      </trkpt>
      <trkpt lat="44.34195" lon="3.46345">
        <ele>510</ele>
        <time>2021-05-17T00:38:35Z</time>
      </trkpt>
      <trkpt lat="44.34182" lon="3.46333">
        <ele>513</ele>
        <time>2021-05-17T00:38:55Z</time>
      </trkpt>
      <trkpt lat="44.34179" lon="3.46333">
        <ele>512</ele>
        <time>2021-05-17T00:38:59Z</time>
      </trkpt>
      <trkpt lat="44.34178" lon="3.46356">
        <ele>504</ele>
        <time>2021-05-17T00:39:21Z</time>
      </trkpt>
      <trkpt lat="44.34177" lon="3.46358">
        <ele>504</ele>
        <time>2021-05-17T00:39:24Z</time>
      </trkpt>
      <trkpt lat="44.34166" lon="3.4634">
        <ele>508</ele>
        <time>2021-05-17T00:39:46Z</time>
      </trkpt>
      <trkpt lat="44.34149" lon="3.46332">
        <ele>507</ele>
        <time>2021-05-17T00:40:10Z</time>
      </trkpt>
      <trkpt lat="44.34145" lon="3.46325">
        <ele>510</ele>
        <time>2021-05-17T00:40:19Z</time>
      </trkpt>
      <trkpt lat="44.34133" lon="3.46317">
        <ele>511</ele>
        <time>2021-05-17T00:40:36Z</time>
      </trkpt>
      <trkpt lat="44.34119" lon="3.46316">
        <ele>509</ele>
        <time>2021-05-17T00:40:55Z</time>
      </trkpt>
      <trkpt lat="44.34108" lon="3.4632">
        <ele>505</ele>
        <time>2021-05-17T00:41:10Z</time>
      </trkpt>
      <trkpt lat="44.34101" lon="3.46325">
        <ele>502</ele>
        <time>2021-05-17T00:41:21Z</time>
      </trkpt>
      <trkpt lat="44.34094" lon="3.46328">
        <ele>499</ele>
        <time>2021-05-17T00:41:31Z</time>
      </trkpt>
      <trkpt lat="44.34081" lon="3.46329">
        <ele>497</ele>
        <time>2021-05-17T00:41:48Z</time>
      </trkpt>
      <trkpt lat="44.34078" lon="3.46336">
        <ele>496</ele>
        <time>2021-05-17T00:41:56Z</time>
      </trkpt>
      <trkpt lat="44.34077" lon="3.46352">
        <ele>494</ele>
        <time>2021-05-17T00:42:11Z</time>
      </trkpt>
      <trkpt lat="44.34073" lon="3.46359">
        <ele>495</ele>
        <time>2021-05-17T00:42:20Z</time>
      </trkpt>
      <trkpt lat="44.34063" lon="3.46364">
        <ele>496</ele>
        <time>2021-05-17T00:42:34Z</time>
      </trkpt>
      <trkpt lat="44.34061" lon="3.46369">
        <ele>496</ele>
        <time>2021-05-17T00:42:39Z</time>
      </trkpt>
      <trkpt lat="44.34064" lon="3.46376">
        <ele>495</ele>
        <time>2021-05-17T00:42:47Z</time>
      </trkpt>
      <trkpt lat="44.34078" lon="3.46386">
        <ele>492</ele>
        <time>2021-05-17T00:43:08Z</time>
      </trkpt>
      <trkpt lat="44.34084" lon="3.46396">
        <ele>490</ele>
        <time>2021-05-17T00:43:21Z</time>
      </trkpt>
      <trkpt lat="44.34088" lon="3.46412">
        <ele>488</ele>
        <time>2021-05-17T00:43:37Z</time>
      </trkpt>
      <trkpt lat="44.34085" lon="3.46422">
        <ele>488</ele>
        <time>2021-05-17T00:43:47Z</time>
      </trkpt>
      <trkpt lat="44.34078" lon="3.46431">
        <ele>488</ele>
        <time>2021-05-17T00:44:00Z</time>
      </trkpt>
      <trkpt lat="44.34059" lon="3.46436">
        <ele>492</ele>
        <time>2021-05-17T00:44:26Z</time>
      </trkpt>
      <trkpt lat="44.3405" lon="3.4644">
        <ele>493</ele>
        <time>2021-05-17T00:44:38Z</time>
      </trkpt>
    </trkseg>
  </trk>
</gpx>